map of ILZ home
ILZ - Airport
Location
City:  Zilina, Slovakia
ICAO:LZZI
IATA:ILZ

Details
Type:Airport (Aerodrome, Airfield)
Use:Public/Civil
Latitude:4913'54"N (49.231528)
Longitude:1836'49"E (18.613500)
Datum:WGS 1984
Elevation:1020 ft (311 m)
Variation:4.95E (WMM2015 magnetic declination)
0.12 annual change
Runways:1
Longest:3773 × 98 ft (1150 × 30 m), paved

Time
Time Zone:UTC+1 (DST+2)
Local Time:

Weather
METAR:LZZI 150330Z 05007KT 9999 BKN023 M01/M05 Q1021

Related Locations
Nearby:
Farthest:CHT: 11629 mi / 18715 km
Waitangi [Tuuta], CIT, NZ

Find:

   beyond  
but within

Other Information
Maps:
NOTAMs:
Links:
Sources:

  
  • flag of Slovakia
  • flag of Zilina
  

Sectional Chart

Flight Planning
at skyvector.com

Satellite Image

Google Maps Satellite view

 

Copyright © 2004-2018 Karl L. Swartz. All rights reserved.
The Great Circle Mapper name and logo are trademarks of the Great Circle Mapper.
All other trademarks mentioned herein belong to their respective owners.
Please see credits for attibutions and further copyright information.

  Follow gcmap on Facebook Follow gcmap on Twitter Follow gcmap on Google+ GCmap on LinkedIn

hCard Microformat

Geo Microformat